createdAt,value
2023-03-15T00:01:15.040Z,17.87
2023-03-15T00:03:43.366Z,18.70
2023-03-15T00:06:12.044Z,17.70
2023-03-15T00:08:41.122Z,17.90
2023-03-15T00:11:08.702Z,18.87
2023-03-15T00:13:36.664Z,18.83
2023-03-15T00:16:04.914Z,18.57
2023-03-15T00:18:33.517Z,18.03
2023-03-15T00:21:01.099Z,17.87
2023-03-15T00:23:28.705Z,18.53
2023-03-15T00:25:57.959Z,18.90
2023-03-15T00:28:25.554Z,19.40
2023-03-15T00:31:04.112Z,18.77
2023-03-15T00:33:34.809Z,18.00
2023-03-15T00:36:05.976Z,17.10
2023-03-15T00:38:33.729Z,16.93
2023-03-15T00:41:07.155Z,17.30
2023-03-15T00:43:35.253Z,15.70
2023-03-15T00:46:03.640Z,16.20
2023-03-15T00:48:31.495Z,15.83
2023-03-15T00:51:07.000Z,15.50
2023-03-15T00:53:35.707Z,17.63
2023-03-15T00:56:10.110Z,15.60
2023-03-15T00:58:37.783Z,15.33
2023-03-15T01:01:07.669Z,15.60
2023-03-15T01:03:36.968Z,15.20
2023-03-15T01:06:09.103Z,15.77
2023-03-15T01:08:36.934Z,16.50
2023-03-15T01:11:05.741Z,15.70
2023-03-15T01:13:35.163Z,15.37
2023-03-15T01:16:02.860Z,15.70
2023-03-15T01:18:31.031Z,17.43
2023-03-15T01:20:59.022Z,16.53
2023-03-15T01:23:26.865Z,16.13
2023-03-15T01:25:54.839Z,16.40
2023-03-15T01:28:22.398Z,15.63
2023-03-15T01:30:51.979Z,15.60
2023-03-15T01:33:19.804Z,16.40
2023-03-15T01:35:47.525Z,15.00
2023-03-15T01:38:15.605Z,15.63
2023-03-15T01:40:44.126Z,18.73
2023-03-15T01:43:18.263Z,14.57
2023-03-15T01:46:23.934Z,14.77
2023-03-15T01:48:57.186Z,17.40
2023-03-15T01:51:29.549Z,20.20
2023-03-15T01:54:02.081Z,33.20
2023-03-15T01:56:31.371Z,46.03
2023-03-15T01:59:02.138Z,42.83
2023-03-15T02:01:32.209Z,42.50
2023-03-15T02:04:04.450Z,46.37
2023-03-15T02:06:34.872Z,52.80
2023-03-15T02:09:06.816Z,51.10
2023-03-15T02:11:36.515Z,56.43
2023-03-15T02:14:07.167Z,58.30
2023-03-15T02:16:36.626Z,64.20
2023-03-15T02:19:05.852Z,65.93
2023-03-15T02:21:42.584Z,67.73
2023-03-15T02:24:22.068Z,66.70
2023-03-15T02:26:52.680Z,65.57
2023-03-15T02:29:24.369Z,65.27
2023-03-15T02:31:53.129Z,59.13
2023-03-15T02:34:25.439Z,59.43
2023-03-15T02:36:54.700Z,56.63
2023-03-15T02:39:23.446Z,49.93
2023-03-15T02:41:54.737Z,42.23
2023-03-15T02:44:30.174Z,35.90
2023-03-15T02:47:03.769Z,34.87
2023-03-15T02:49:36.247Z,31.40
2023-03-15T02:52:04.448Z,28.87
2023-03-15T02:54:34.294Z,27.33
2023-03-15T02:57:02.140Z,26.50
2023-03-15T02:59:31.286Z,29.30
2023-03-15T03:01:58.873Z,27.70
2023-03-15T03:04:26.479Z,27.83
2023-03-15T03:06:54.396Z,26.60
2023-03-15T03:09:22.108Z,25.17
2023-03-15T03:11:50.202Z,26.03
2023-03-15T03:14:17.827Z,26.27
2023-03-15T03:16:46.879Z,25.60
2023-03-15T03:19:14.562Z,25.40
2023-03-15T03:21:44.357Z,25.33
2023-03-15T03:24:16.091Z,26.97
2023-03-15T03:26:46.164Z,28.50
2023-03-15T03:29:16.432Z,27.40
2023-03-15T03:31:45.885Z,27.30
2023-03-15T03:34:15.498Z,29.97
2023-03-15T03:36:43.716Z,28.43
2023-03-15T03:39:11.704Z,27.90
2023-03-15T03:41:39.285Z,27.60
2023-03-15T03:44:07.372Z,26.90
2023-03-15T03:46:36.226Z,28.30
2023-03-15T03:49:05.209Z,27.17
2023-03-15T03:51:34.013Z,27.03
2023-03-15T03:54:01.803Z,26.73
2023-03-15T03:56:29.522Z,26.50
2023-03-15T03:58:57.314Z,25.80
2023-03-15T04:01:25.256Z,26.50
2023-03-15T04:03:52.813Z,27.37
2023-03-15T04:06:22.542Z,27.90
2023-03-15T04:08:50.422Z,25.23
2023-03-15T04:11:18.466Z,26.17
2023-03-15T04:13:46.174Z,27.00
2023-03-15T04:16:14.548Z,26.93
2023-03-15T04:18:42.283Z,25.70
2023-03-15T04:21:10.760Z,25.77
2023-03-15T04:23:40.193Z,27.70
2023-03-15T04:26:07.806Z,26.80
2023-03-15T04:28:38.027Z,29.13
2023-03-15T04:31:10.508Z,30.40
2023-03-15T04:33:38.178Z,30.60
2023-03-15T04:36:06.127Z,31.00
2023-03-15T04:38:35.434Z,32.57
2023-03-15T04:41:10.817Z,32.10
2023-03-15T04:43:38.444Z,33.30
2023-03-15T04:46:06.230Z,30.20
2023-03-15T04:48:33.839Z,29.80
2023-03-15T04:51:01.636Z,28.37
2023-03-15T04:53:29.433Z,28.63
2023-03-15T04:55:57.361Z,29.83
2023-03-15T04:58:26.363Z,30.60
2023-03-15T05:00:54.260Z,30.60
2023-03-15T05:03:22.183Z,30.47
2023-03-15T05:05:49.764Z,33.47
2023-03-15T05:08:17.387Z,33.23
2023-03-15T05:10:45.172Z,37.47
2023-03-15T05:13:13.150Z,40.43
2023-03-15T05:15:42.066Z,44.07
2023-03-15T05:18:09.644Z,45.93
2023-03-15T05:20:37.223Z,51.23
2023-03-15T05:23:05.317Z,56.27
2023-03-15T05:25:34.009Z,67.93
2023-03-15T05:28:04.482Z,87.50
2023-03-15T05:30:32.435Z,93.43
2023-03-15T05:33:04.684Z,90.07
2023-03-15T05:35:32.503Z,68.27
2023-03-15T05:38:00.540Z,60.20
2023-03-15T05:40:29.965Z,56.17
2023-03-15T05:42:57.720Z,54.93
2023-03-15T05:45:25.342Z,45.70
2023-03-15T05:47:52.953Z,44.57
2023-03-15T05:50:21.901Z,44.43
2023-03-15T05:52:51.602Z,44.60
2023-03-15T05:55:19.188Z,47.20
2023-03-15T05:57:47.145Z,48.00
2023-03-15T06:00:16.371Z,50.93
2023-03-15T06:02:45.070Z,49.30
2023-03-15T06:05:13.195Z,49.77
2023-03-15T06:07:42.440Z,53.13
2023-03-15T06:10:11.434Z,54.63
2023-03-15T06:12:39.125Z,55.60
2023-03-15T06:15:08.255Z,55.73
2023-03-15T06:17:36.129Z,56.70
2023-03-15T06:20:04.854Z,62.67
2023-03-15T06:22:33.074Z,70.83
2023-03-15T06:25:03.455Z,74.93
2023-03-15T06:27:31.108Z,87.33
2023-03-15T06:29:59.405Z,88.90
2023-03-15T06:32:27.251Z,81.27
2023-03-15T06:34:54.888Z,78.47
2023-03-15T06:37:34.574Z,79.27
2023-03-15T06:40:07.228Z,67.30
2023-03-15T06:42:35.127Z,63.23
2023-03-15T06:45:03.402Z,57.20
2023-03-15T06:47:31.081Z,48.77
2023-03-15T06:49:58.705Z,51.33
2023-03-15T06:52:26.348Z,56.00
2023-03-15T06:54:53.967Z,57.57
2023-03-15T06:57:23.101Z,56.43
2023-03-15T06:59:50.793Z,62.70
2023-03-15T07:02:19.966Z,64.53
2023-03-15T07:04:48.779Z,59.93
2023-03-15T07:07:16.943Z,62.20
2023-03-15T07:09:44.761Z,60.50
2023-03-15T07:12:12.668Z,57.70
2023-03-15T07:14:41.610Z,54.33
2023-03-15T07:17:09.409Z,49.17
2023-03-15T07:19:41.457Z,50.03
2023-03-15T07:22:14.510Z,50.47
2023-03-15T07:24:42.075Z,45.63
2023-03-15T07:27:15.338Z,47.13
2023-03-15T07:29:45.110Z,46.50
2023-03-15T07:32:12.738Z,47.30
2023-03-15T07:34:40.517Z,39.40
2023-03-15T07:37:08.282Z,33.80
2023-03-15T07:39:35.930Z,30.80
2023-03-15T07:42:03.773Z,30.20
2023-03-15T07:44:31.382Z,30.17
2023-03-15T07:47:00.655Z,29.87
2023-03-15T07:49:28.809Z,30.70
2023-03-15T07:51:56.418Z,30.40
2023-03-15T07:54:24.078Z,31.60
2023-03-15T07:56:51.669Z,31.40
2023-03-15T07:59:19.268Z,30.60
2023-03-15T08:01:46.854Z,31.30
2023-03-15T08:04:15.789Z,31.60
2023-03-15T08:06:43.416Z,32.03
2023-03-15T08:09:11.994Z,30.40
2023-03-15T08:11:39.656Z,30.93
2023-03-15T08:14:07.256Z,29.40
2023-03-15T08:16:34.891Z,30.50
2023-03-15T08:19:02.543Z,28.90
2023-03-15T08:21:33.566Z,29.30
2023-03-15T08:24:01.852Z,30.10
2023-03-15T08:26:29.570Z,28.60
2023-03-15T08:28:57.154Z,26.27
2023-03-15T08:31:24.840Z,26.00
2023-03-15T08:33:52.563Z,26.43
2023-03-15T08:36:21.174Z,27.13
2023-03-15T08:38:50.226Z,27.40
2023-03-15T08:41:17.874Z,27.63
2023-03-15T08:43:45.462Z,27.87
2023-03-15T08:46:13.094Z,27.13
2023-03-15T08:48:41.033Z,27.07
2023-03-15T08:51:09.843Z,27.67
2023-03-15T08:53:38.348Z,27.73
2023-03-15T08:56:07.589Z,26.70
2023-03-15T08:58:35.848Z,26.03
2023-03-15T09:01:04.850Z,28.20
2023-03-15T09:03:33.226Z,27.67
2023-03-15T09:06:01.454Z,27.30
2023-03-15T09:08:29.241Z,26.57
2023-03-15T09:10:57.336Z,27.00
2023-03-15T09:13:27.676Z,25.93
2023-03-15T09:15:57.163Z,27.73
2023-03-15T09:18:25.570Z,28.00
2023-03-15T09:20:53.391Z,27.40
2023-03-15T09:23:21.100Z,27.47
2023-03-15T09:25:48.704Z,25.80
2023-03-15T09:28:16.299Z,25.00
2023-03-15T09:30:45.279Z,25.53
2023-03-15T09:33:14.635Z,25.77
2023-03-15T09:35:42.507Z,25.90
2023-03-15T09:38:10.431Z,26.50
2023-03-15T09:40:41.211Z,27.33
2023-03-15T09:43:23.592Z,26.37
2023-03-15T09:46:11.928Z,27.13
2023-03-15T09:48:49.985Z,26.30
2023-03-15T09:51:35.399Z,27.30
2023-03-15T09:54:06.559Z,26.23
2023-03-15T09:56:37.569Z,27.97
2023-03-15T09:59:06.784Z,26.90
2023-03-15T10:01:38.097Z,26.30
2023-03-15T10:04:12.193Z,26.83
2023-03-15T10:06:46.017Z,26.20
2023-03-15T10:09:18.734Z,24.80
2023-03-15T10:11:56.048Z,24.57
2023-03-15T10:14:34.445Z,25.20
2023-03-15T10:17:06.200Z,25.07
2023-03-15T10:19:45.761Z,24.93
2023-03-15T10:22:21.690Z,25.37
2023-03-15T10:24:54.443Z,24.80
2023-03-15T10:27:23.866Z,24.80
2023-03-15T10:29:55.797Z,24.97
2023-03-15T10:32:29.232Z,25.00
2023-03-15T10:34:59.349Z,24.20
2023-03-15T10:37:27.644Z,23.33
2023-03-15T10:39:57.582Z,23.63
2023-03-15T10:42:30.687Z,23.67
2023-03-15T10:44:58.867Z,24.77
2023-03-15T10:47:28.738Z,26.23
2023-03-15T10:49:58.817Z,28.57
2023-03-15T10:52:35.620Z,31.83
2023-03-15T10:55:07.542Z,28.10
2023-03-15T10:57:38.950Z,28.50
2023-03-15T11:00:20.384Z,27.83
2023-03-15T11:02:52.859Z,27.70
2023-03-15T11:05:21.472Z,28.10
2023-03-15T11:07:56.536Z,26.70
2023-03-15T11:10:25.612Z,27.50
2023-03-15T11:13:11.690Z,26.60
2023-03-15T11:15:40.119Z,26.53
2023-03-15T11:18:19.031Z,25.40
2023-03-15T11:20:46.731Z,25.90
2023-03-15T11:23:17.398Z,25.10
2023-03-15T11:25:45.833Z,25.10
2023-03-15T11:28:18.978Z,25.40
2023-03-15T11:30:48.701Z,24.70
2023-03-15T11:33:33.554Z,24.90
2023-03-15T11:36:05.076Z,23.97
2023-03-15T11:38:36.213Z,23.13
2023-03-15T11:41:11.972Z,24.80
2023-03-15T11:43:50.429Z,20.97
2023-03-15T11:46:25.748Z,20.10
2023-03-15T11:49:00.620Z,19.70
2023-03-15T11:51:30.240Z,20.10
2023-03-15T11:54:08.105Z,19.30
2023-03-15T11:57:04.090Z,17.63
2023-03-15T11:59:33.559Z,16.50
2023-03-15T12:02:22.453Z,17.50
2023-03-15T12:04:52.249Z,20.00
2023-03-15T12:07:39.121Z,20.70
2023-03-15T12:10:37.082Z,21.77
2023-03-15T12:13:18.442Z,22.37
2023-03-15T12:15:49.166Z,21.50
2023-03-15T12:18:28.366Z,20.63
2023-03-15T12:21:09.844Z,22.13
2023-03-15T12:23:44.322Z,21.83
2023-03-15T12:26:24.859Z,23.53
2023-03-15T12:28:54.510Z,24.10
2023-03-15T12:31:23.024Z,23.87
2023-03-15T12:33:52.834Z,24.90
2023-03-15T12:36:33.314Z,24.33
2023-03-15T12:39:20.776Z,24.10
2023-03-15T12:41:49.884Z,24.23
2023-03-15T12:44:26.509Z,25.20
2023-03-15T12:46:56.398Z,24.13
2023-03-15T12:49:36.324Z,23.10
2023-03-15T12:52:07.907Z,22.40
2023-03-15T12:54:43.230Z,21.83
2023-03-15T12:57:14.080Z,21.97
2023-03-15T12:59:49.030Z,22.10
2023-03-15T13:02:39.566Z,21.10
2023-03-15T13:05:23.974Z,20.20
2023-03-15T13:08:06.245Z,19.40
2023-03-15T13:10:40.378Z,20.40
2023-03-15T13:13:22.338Z,19.30
2023-03-15T13:16:03.589Z,20.23
2023-03-15T13:18:35.063Z,19.20
2023-03-15T13:21:14.956Z,20.17
2023-03-15T13:23:51.891Z,20.43
2023-03-15T13:26:33.207Z,19.30
2023-03-15T13:29:06.296Z,20.10
2023-03-15T13:31:34.788Z,19.83
2023-03-15T13:34:13.549Z,19.50
2023-03-15T13:36:44.960Z,20.73
2023-03-15T13:39:23.081Z,19.70
2023-03-15T13:41:51.216Z,18.00
2023-03-15T13:44:21.562Z,18.03
2023-03-15T13:46:51.681Z,18.40
2023-03-15T13:49:20.322Z,17.60
2023-03-15T13:51:49.836Z,18.57
2023-03-15T13:54:21.893Z,18.27
2023-03-15T13:57:03.394Z,18.63
2023-03-15T13:59:35.242Z,17.83
2023-03-15T14:02:05.852Z,17.40
2023-03-15T14:04:38.549Z,18.20
2023-03-15T14:07:28.988Z,16.70
2023-03-15T14:10:27.055Z,17.40
2023-03-15T14:12:55.764Z,17.83
2023-03-15T14:15:27.213Z,17.30
2023-03-15T14:18:00.663Z,17.20
2023-03-15T14:20:33.550Z,18.03
2023-03-15T14:23:02.347Z,18.63
2023-03-15T14:25:36.202Z,16.73
2023-03-15T14:28:05.194Z,16.33
2023-03-15T14:30:37.166Z,18.10
2023-03-15T14:33:07.551Z,17.30
2023-03-15T14:35:43.661Z,15.40
2023-03-15T14:38:19.643Z,17.20
2023-03-15T14:40:49.884Z,16.80
2023-03-15T14:43:17.441Z,16.33
2023-03-15T14:45:48.232Z,16.23
2023-03-15T14:48:23.144Z,15.70
2023-03-15T14:50:50.786Z,15.67
2023-03-15T14:53:21.867Z,15.80
2023-03-15T14:55:50.843Z,15.80
2023-03-15T14:58:20.768Z,16.47
2023-03-15T15:00:53.321Z,14.73
2023-03-15T15:03:25.734Z,15.60
2023-03-15T15:05:53.377Z,14.90
2023-03-15T15:08:22.563Z,13.63
2023-03-15T15:10:53.481Z,14.70
2023-03-15T15:13:23.553Z,15.13
2023-03-15T15:15:56.174Z,14.60
2023-03-15T15:18:25.883Z,14.27
2023-03-15T15:20:55.955Z,13.50
2023-03-15T15:23:26.692Z,14.50
2023-03-15T15:25:59.247Z,14.10
2023-03-15T15:28:35.192Z,14.63
2023-03-15T15:31:04.144Z,14.10
2023-03-15T15:33:32.615Z,14.70
2023-03-15T15:36:00.952Z,14.03
2023-03-15T15:38:33.077Z,14.30
2023-03-15T15:41:02.195Z,13.37
2023-03-15T15:43:32.331Z,13.70
2023-03-15T15:46:01.849Z,13.53
2023-03-15T15:48:29.584Z,13.03
2023-03-15T15:50:57.223Z,13.83
2023-03-15T15:53:24.935Z,12.77
2023-03-15T15:55:52.596Z,12.57
2023-03-15T15:58:22.734Z,12.60
2023-03-15T16:00:50.843Z,14.60
2023-03-15T16:03:18.656Z,18.00
2023-03-15T16:05:46.391Z,13.80
2023-03-15T16:08:20.492Z,14.70
2023-03-15T16:10:48.238Z,13.47
2023-03-15T16:13:16.102Z,14.57
2023-03-15T16:15:45.599Z,14.37
2023-03-15T16:18:13.849Z,14.40
2023-03-15T16:20:42.660Z,13.53
2023-03-15T16:23:18.130Z,13.37
2023-03-15T16:25:51.757Z,12.80
2023-03-15T16:28:19.792Z,12.90
2023-03-15T16:30:48.784Z,12.83
2023-03-15T16:33:18.450Z,13.43
2023-03-15T16:35:48.561Z,13.17
2023-03-15T16:38:23.993Z,14.00
2023-03-15T16:40:53.415Z,13.50
2023-03-15T16:43:21.513Z,13.20
2023-03-15T16:45:50.597Z,13.10
2023-03-15T16:48:18.218Z,15.17
2023-03-15T16:50:45.961Z,19.83
2023-03-15T16:53:14.432Z,18.43
2023-03-15T16:55:42.216Z,16.23
2023-03-15T16:58:17.467Z,16.67
2023-03-15T17:00:47.066Z,15.50
2023-03-15T17:03:18.236Z,16.00
2023-03-15T17:05:47.578Z,13.40
2023-03-15T17:08:19.847Z,15.00
2023-03-15T17:10:49.303Z,16.20
2023-03-15T17:13:22.154Z,16.00
2023-03-15T17:15:50.029Z,16.93
2023-03-15T17:18:21.618Z,16.93
2023-03-15T17:20:50.822Z,16.30
2023-03-15T17:23:20.839Z,15.00
2023-03-15T17:25:49.348Z,15.47
2023-03-15T17:28:16.949Z,14.30
2023-03-15T17:30:44.704Z,14.70
2023-03-15T17:33:12.448Z,14.63
2023-03-15T17:35:44.776Z,15.57
2023-03-15T17:38:18.418Z,16.00
2023-03-15T17:40:46.659Z,17.80
2023-03-15T17:43:15.768Z,15.00
2023-03-15T17:45:43.785Z,16.30
2023-03-15T17:48:11.434Z,15.70
2023-03-15T17:50:40.009Z,15.47
2023-03-15T17:53:15.818Z,15.70
2023-03-15T17:55:43.802Z,16.60
2023-03-15T17:58:13.188Z,16.53
2023-03-15T18:00:43.405Z,17.57
2023-03-15T18:03:13.213Z,15.70
2023-03-15T18:05:41.300Z,16.13
2023-03-15T18:08:14.112Z,16.77
2023-03-15T18:10:42.532Z,17.20
2023-03-15T18:13:14.333Z,17.40
2023-03-15T18:15:42.051Z,16.10
2023-03-15T18:18:09.943Z,16.93
2023-03-15T18:20:37.681Z,19.37
2023-03-15T18:23:05.870Z,18.13
2023-03-15T18:25:36.253Z,17.47
2023-03-15T18:28:04.325Z,17.83
2023-03-15T18:30:35.331Z,18.10
2023-03-15T18:33:04.301Z,17.77
2023-03-15T18:35:34.552Z,18.00
2023-03-15T18:38:03.955Z,21.53
2023-03-15T18:40:33.349Z,19.13
2023-03-15T18:43:04.099Z,20.40
2023-03-15T18:45:33.541Z,19.63
2023-03-15T18:48:01.482Z,19.83
2023-03-15T18:50:30.193Z,19.00
2023-03-15T18:52:58.270Z,18.83
2023-03-15T18:55:26.914Z,18.70
2023-03-15T18:57:56.160Z,19.43
2023-03-15T19:00:27.337Z,18.33
2023-03-15T19:02:57.094Z,18.10
2023-03-15T19:05:25.951Z,18.00
2023-03-15T19:07:53.997Z,17.50
2023-03-15T19:10:23.249Z,18.77
2023-03-15T19:12:52.265Z,19.10
2023-03-15T19:15:21.617Z,17.30
2023-03-15T19:17:52.597Z,17.70
2023-03-15T19:20:22.384Z,17.80
2023-03-15T19:22:51.131Z,17.37
2023-03-15T19:25:19.548Z,17.70
2023-03-15T19:27:47.448Z,17.20
2023-03-15T19:30:20.814Z,16.20
2023-03-15T19:32:50.644Z,18.97
2023-03-15T19:35:19.682Z,16.00
2023-03-15T19:37:47.503Z,16.10
2023-03-15T19:40:16.423Z,16.87
2023-03-15T19:42:44.054Z,16.47
2023-03-15T19:45:12.917Z,16.70
2023-03-15T19:47:40.932Z,15.93
2023-03-15T19:50:12.071Z,15.80
2023-03-15T19:52:45.697Z,16.30
2023-03-15T19:55:13.756Z,15.17
2023-03-15T19:57:41.896Z,16.13
2023-03-15T20:00:12.549Z,15.80
2023-03-15T20:02:41.001Z,15.47
2023-03-15T20:05:12.136Z,16.13
2023-03-15T20:07:40.210Z,15.07
2023-03-15T20:10:10.084Z,15.70
2023-03-15T20:12:39.137Z,16.67
2023-03-15T20:15:09.957Z,14.90
2023-03-15T20:17:37.983Z,15.50
2023-03-15T20:20:10.212Z,15.27
2023-03-15T20:22:41.246Z,16.87
2023-03-15T20:25:09.896Z,16.90
2023-03-15T20:27:38.081Z,15.97
2023-03-15T20:30:06.687Z,16.30
2023-03-15T20:32:34.331Z,17.07
2023-03-15T20:35:02.343Z,16.50
2023-03-15T20:37:31.652Z,18.70
2023-03-15T20:40:00.617Z,15.03
2023-03-15T20:42:28.295Z,15.80
2023-03-15T20:44:56.420Z,16.27
2023-03-15T20:47:23.992Z,15.87
2023-03-15T20:49:54.097Z,15.87
2023-03-15T20:52:21.783Z,16.33
2023-03-15T20:54:49.638Z,15.97
2023-03-15T20:57:18.618Z,15.73
2023-03-15T20:59:46.624Z,15.30
2023-03-15T21:02:14.287Z,15.77
2023-03-15T21:04:41.958Z,14.83
2023-03-15T21:07:09.600Z,15.83
2023-03-15T21:09:37.207Z,14.47
2023-03-15T21:12:04.912Z,15.20
2023-03-15T21:14:34.280Z,14.53
2023-03-15T21:17:02.327Z,15.40
2023-03-15T21:19:30.079Z,16.10
2023-03-15T21:21:59.008Z,15.73
2023-03-15T21:24:31.086Z,17.23
2023-03-15T21:26:58.877Z,15.80
2023-03-15T21:29:26.815Z,14.73
2023-03-15T21:31:55.825Z,15.40
2023-03-15T21:34:24.028Z,17.00
2023-03-15T21:36:51.726Z,14.90
2023-03-15T21:39:19.348Z,15.53
2023-03-15T21:41:46.943Z,16.30
2023-03-15T21:44:14.612Z,15.63
2023-03-15T21:46:43.366Z,15.27
2023-03-15T21:49:12.499Z,14.73
2023-03-15T21:51:40.100Z,15.30
2023-03-15T21:54:08.268Z,16.30
2023-03-15T21:56:35.905Z,15.20
2023-03-15T21:59:03.623Z,14.97
2023-03-15T22:01:31.284Z,15.97
2023-03-15T22:03:58.992Z,15.10
2023-03-15T22:06:27.963Z,14.10
2023-03-15T22:08:55.649Z,14.63
2023-03-15T22:11:23.303Z,14.47
2023-03-15T22:13:52.667Z,14.60
2023-03-15T22:16:20.403Z,13.80
2023-03-15T22:18:48.111Z,14.20
2023-03-15T22:21:15.686Z,14.80
2023-03-15T22:23:45.106Z,13.83
2023-03-15T22:26:12.789Z,14.53
2023-03-15T22:28:40.893Z,13.83
2023-03-15T22:31:11.096Z,14.80
2023-03-15T22:33:39.373Z,13.57
2023-03-15T22:36:07.520Z,13.67
2023-03-15T22:38:38.522Z,15.43
2023-03-15T22:41:10.281Z,14.03
2023-03-15T22:43:38.867Z,14.50
2023-03-15T22:46:07.540Z,13.70
2023-03-15T22:48:35.229Z,15.23
2023-03-15T22:51:05.318Z,13.17
2023-03-15T22:53:33.056Z,13.80
2023-03-15T22:56:01.309Z,16.03
2023-03-15T22:58:30.388Z,13.43
2023-03-15T23:00:58.030Z,14.57
2023-03-15T23:03:26.315Z,14.37
2023-03-15T23:05:54.423Z,13.90
2023-03-15T23:08:22.780Z,13.40
2023-03-15T23:10:50.979Z,13.43
2023-03-15T23:13:18.764Z,14.53
2023-03-15T23:15:47.833Z,14.60
2023-03-15T23:18:15.440Z,14.23
2023-03-15T23:20:44.504Z,15.53
2023-03-15T23:23:12.232Z,15.50
2023-03-15T23:25:41.028Z,14.67
2023-03-15T23:28:09.202Z,15.07
2023-03-15T23:30:38.815Z,14.93
2023-03-15T23:33:08.437Z,14.63
2023-03-15T23:35:37.153Z,14.90
2023-03-15T23:38:05.157Z,15.40
2023-03-15T23:40:32.819Z,16.20
2023-03-15T23:43:00.468Z,15.10
2023-03-15T23:45:29.930Z,15.23
2023-03-15T23:47:58.477Z,14.97
2023-03-15T23:50:27.830Z,16.20
2023-03-15T23:52:57.035Z,14.73
2023-03-15T23:55:25.761Z,15.70
2023-03-15T23:57:53.458Z,16.27
